Time;durP1;ratioP1;P1;durP2;ratioP2;P2;SDS_P1;SDS_P2;PMS_P1;PMS_P2;Temp;Humidity;BMP_temperature;BMP_pressure;BME280_temperature;BME280_humidity;BME280_pressure;Samples;Min_cycle;Max_cycle;Signal;HPM_P1;HPM_P2
2021/04/07 00:01:13;;;;;;;2.97;0.40;;;8.30;78.60;;;;;;4857387;29;20040;-75
2021/04/07 00:03:40;;;;;;;1.38;0.30;;;8.30;78.20;;;;;;4835347;29;20077;-74
2021/04/07 00:06:08;;;;;;;2.53;0.65;;;8.30;78.10;;;;;;4851549;29;20090;-74
2021/04/07 00:08:36;;;;;;;2.67;0.52;;;8.30;78.30;;;;;;4851456;29;20048;-74
2021/04/07 00:11:05;;;;;;;1.58;0.45;;;8.30;78.40;;;;;;4857864;29;20041;-74
2021/04/07 00:13:32;;;;;;;2.67;0.50;;;8.20;78.30;;;;;;4836954;29;20297;-75
2021/04/07 00:15:59;;;;;;;2.67;0.50;;;8.20;78.30;;;;;;4844827;29;20056;-75
2021/04/07 00:18:27;;;;;;;3.05;0.80;;;8.20;78.40;;;;;;4832118;29;20416;-74
2021/04/07 00:20:54;;;;;;;1.65;0.50;;;8.20;78.30;;;;;;4851357;29;20061;-74
2021/04/07 00:23:22;;;;;;;2.33;0.60;;;8.20;78.30;;;;;;4851203;29;20167;-74
2021/04/07 00:25:49;;;;;;;1.23;0.40;;;8.10;78.10;;;;;;4836779;29;20049;-74
2021/04/07 00:28:21;;;;;;;1.42;0.50;;;8.20;78.30;;;;;;4835002;29;20041;-74
2021/04/07 00:30:49;;;;;;;2.60;0.55;;;8.20;78.20;;;;;;4820320;29;20119;-75
2021/04/07 00:33:17;;;;;;;2.42;0.50;;;8.20;78.10;;;;;;4846261;29;20042;-75
2021/04/07 00:35:45;;;;;;;2.38;0.43;;;8.20;78.30;;;;;;4850914;29;20404;-75
2021/04/07 00:38:12;;;;;;;1.05;0.22;;;8.20;78.40;;;;;;4850983;29;20052;-74
2021/04/07 00:40:40;;;;;;;2.67;0.40;;;8.20;78.30;;;;;;4851559;29;20061;-75
2021/04/07 00:43:08;;;;;;;1.13;0.45;;;8.20;78.30;;;;;;4834127;29;20041;-75
2021/04/07 00:45:36;;;;;;;4.68;0.82;;;8.20;78.40;;;;;;4837667;29;20041;-74
2021/04/07 00:48:05;;;;;;;1.20;0.25;;;8.10;78.10;;;;;;4831998;29;20041;-74
2021/04/07 00:50:33;;;;;;;2.10;0.50;;;8.20;78.00;;;;;;4832741;29;20603;-74
2021/04/07 00:53:01;;;;;;;2.90;0.55;;;8.20;77.90;;;;;;4834863;29;20206;-74
2021/04/07 00:55:32;;;;;;;1.98;0.60;;;8.30;77.70;;;;;;4850471;29;20045;-74
2021/04/07 00:58:00;;;;;;;1.52;0.30;;;8.20;77.70;;;;;;4821794;29;20121;-78
2021/04/07 01:00:28;;;;;;;1.65;0.15;;;8.10;77.80;;;;;;4830581;29;20049;-78
2021/04/07 01:02:58;;;;;;;1.75;0.25;;;8.20;78.00;;;;;;4848461;29;20259;-80
2021/04/07 01:05:27;;;;;;;1.48;0.30;;;8.10;77.60;;;;;;4839676;29;20132;-79
2021/04/07 01:07:55;;;;;;;1.58;0.20;;;8.10;77.50;;;;;;4836651;29;20492;-79
2021/04/07 01:10:22;;;;;;;1.65;0.30;;;8.10;77.50;;;;;;4850978;29;20154;-79
2021/04/07 01:12:49;;;;;;;1.13;0.13;;;8.10;77.50;;;;;;4849332;29;20041;-78
2021/04/07 01:15:17;;;;;;;1.27;0.40;;;8.00;77.00;;;;;;4833402;29;20057;-79
2021/04/07 01:17:45;;;;;;;1.70;0.25;;;7.90;77.30;;;;;;4850230;29;20096;-78
2021/04/07 01:20:17;;;;;;;2.03;0.40;;;8.00;77.40;;;;;;4847693;29;20078;-78
2021/04/07 01:22:47;;;;;;;2.55;0.35;;;8.00;77.30;;;;;;4832849;29;20034;-79
2021/04/07 01:25:16;;;;;;;2.28;0.30;;;7.90;77.20;;;;;;4833085;29;20050;-78
2021/04/07 01:27:44;;;;;;;0.75;0.25;;;8.00;77.20;;;;;;4854078;29;20048;-79
2021/04/07 01:30:14;;;;;;;1.52;0.28;;;8.00;77.20;;;;;;4831792;29;20064;-79
2021/04/07 01:32:41;;;;;;;3.67;0.57;;;8.10;76.80;;;;;;4836128;29;20598;-79
2021/04/07 01:35:11;;;;;;;1.85;0.32;;;8.10;77.00;;;;;;4835739;29;20046;-79
2021/04/07 01:37:40;;;;;;;2.67;0.38;;;8.10;76.90;;;;;;4849760;29;20625;-78
2021/04/07 01:40:11;;;;;;;3.92;0.30;;;8.10;76.70;;;;;;4832980;29;20065;-78
2021/04/07 01:42:41;;;;;;;3.08;0.55;;;8.10;76.60;;;;;;4842256;29;20304;-78
2021/04/07 01:45:10;;;;;;;1.30;0.25;;;8.10;76.70;;;;;;4845671;29;20352;-79
2021/04/07 01:47:38;;;;;;;2.15;0.30;;;8.00;76.60;;;;;;4837828;29;20535;-78
2021/04/07 01:50:07;;;;;;;1.33;0.30;;;8.00;76.60;;;;;;4849660;29;20048;-78
2021/04/07 01:52:35;;;;;;;1.13;0.20;;;8.00;76.60;;;;;;4837051;29;20069;-79
2021/04/07 01:55:04;;;;;;;1.17;0.20;;;8.00;76.40;;;;;;4853223;29;20478;-79
2021/04/07 01:57:31;;;;;;;1.92;0.40;;;7.90;76.70;;;;;;4833123;29;20133;-79
2021/04/07 02:00:00;;;;;;;2.70;0.50;;;8.00;76.80;;;;;;4816369;29;20156;-78
2021/04/07 02:02:28;;;;;;;0.45;0.20;;;8.10;76.70;;;;;;4818270;29;20054;-77
2021/04/07 02:04:55;;;;;;;1.58;0.30;;;8.10;76.60;;;;;;4833987;29;20600;-78
2021/04/07 02:07:23;;;;;;;1.67;0.38;;;8.10;76.60;;;;;;4832583;29;20049;-78
2021/04/07 02:09:50;;;;;;;1.13;0.40;;;8.20;76.70;;;;;;4842396;29;20173;-79
2021/04/07 02:12:17;;;;;;;1.65;0.22;;;8.20;76.50;;;;;;4835765;29;20073;-79
2021/04/07 02:14:45;;;;;;;1.35;0.20;;;8.20;76.40;;;;;;4848635;29;20073;-78
2021/04/07 02:17:13;;;;;;;1.65;0.20;;;8.30;76.50;;;;;;4847556;29;20045;-78
2021/04/07 02:19:40;;;;;;;2.38;0.20;;;8.40;76.50;;;;;;4844825;29;20042;-78
2021/04/07 02:22:10;;;;;;;1.88;0.20;;;8.30;76.00;;;;;;4831425;29;20067;-78
2021/04/07 02:24:38;;;;;;;2.95;0.40;;;8.30;75.90;;;;;;4849658;29;20049;-78
2021/04/07 02:27:11;;;;;;;0.75;0.20;;;8.30;75.90;;;;;;4850069;29;20143;-78
2021/04/07 02:29:39;;;;;;;1.50;0.20;;;8.20;76.00;;;;;;4846876;29;20480;-78
2021/04/07 02:32:07;;;;;;;2.42;0.30;;;8.20;76.00;;;;;;4846796;29;20134;-78
2021/04/07 02:34:37;;;;;;;1.27;0.43;;;8.40;75.90;;;;;;4849610;29;20215;-78
2021/04/07 02:37:04;;;;;;;0.75;0.20;;;8.40;75.60;;;;;;4853158;29;20060;-78
2021/04/07 02:39:32;;;;;;;1.05;0.30;;;8.20;75.70;;;;;;4853257;29;20038;-78
2021/04/07 02:41:59;;;;;;;1.23;0.20;;;8.10;75.40;;;;;;4834584;29;20045;-78
2021/04/07 02:44:27;;;;;;;1.35;0.30;;;8.20;75.60;;;;;;4845929;29;20463;-79
2021/04/07 02:46:54;;;;;;;0.30;0.10;;;8.20;75.70;;;;;;4850725;29;20041;-78
2021/04/07 02:49:22;;;;;;;0.90;0.20;;;8.10;75.60;;;;;;4847092;29;20147;-78
2021/04/07 02:51:51;;;;;;;3.83;0.28;;;8.10;75.80;;;;;;4850197;29;20504;-78
2021/04/07 02:54:19;;;;;;;0.95;0.15;;;8.20;75.80;;;;;;4840139;29;20042;-78
2021/04/07 02:56:46;;;;;;;2.30;0.25;;;8.20;75.70;;;;;;4842003;29;20137;-78
2021/04/07 02:59:14;;;;;;;1.00;0.28;;;8.20;75.90;;;;;;4853182;29;20408;-77
2021/04/07 03:01:41;;;;;;;0.98;0.20;;;8.20;76.00;;;;;;4836822;29;20056;-79
2021/04/07 03:04:09;;;;;;;0.90;0.28;;;8.20;75.90;;;;;;4854151;29;20037;-78
2021/04/07 03:06:36;;;;;;;1.27;0.20;;;8.20;75.80;;;;;;4849904;29;20045;-78
2021/04/07 03:09:05;;;;;;;2.13;0.55;;;8.10;76.30;;;;;;4838218;29;20497;-79
2021/04/07 03:11:34;;;;;;;1.38;0.40;;;8.00;76.40;;;;;;4836270;29;20136;-78
2021/04/07 03:14:02;;;;;;;1.95;0.30;;;8.20;76.10;;;;;;4844387;29;20049;-78
2021/04/07 03:16:29;;;;;;;2.83;0.20;;;8.30;75.90;;;;;;4851219;29;20511;-78
2021/04/07 03:18:57;;;;;;;1.40;0.30;;;8.20;75.90;;;;;;4832569;29;20085;-78
2021/04/07 03:22:01;;;;;;;2.20;0.30;;;8.00;76.30;;;;;;4852650;29;20100;-78
2021/04/07 03:24:30;;;;;;;0.40;0.10;;;7.90;76.20;;;;;;4848570;29;20112;-78
2021/04/07 03:26:58;;;;;;;1.38;0.22;;;7.90;75.70;;;;;;4837728;29;20599;-78
2021/04/07 03:29:25;;;;;;;1.38;0.30;;;7.90;75.90;;;;;;4859261;29;20041;-78
2021/04/07 03:31:53;;;;;;;0.70;0.30;;;7.90;75.60;;;;;;4852501;29;20037;-76
2021/04/07 03:34:21;;;;;;;1.90;0.80;;;7.80;76.50;;;;;;4835050;29;20102;-78
2021/04/07 03:36:48;;;;;;;2.35;0.20;;;7.90;76.60;;;;;;4832055;29;20098;-76
2021/04/07 03:39:15;;;;;;;1.20;0.40;;;7.90;76.80;;;;;;4856566;29;20037;-78
2021/04/07 03:41:43;;;;;;;0.60;0.20;;;8.10;76.60;;;;;;4853065;29;20045;-77
2021/04/07 03:44:11;;;;;;;0.95;0.32;;;8.10;76.70;;;;;;4836936;29;20587;-76
2021/04/07 03:46:38;;;;;;;1.55;0.40;;;8.20;77.00;;;;;;4834599;29;20057;-76
2021/04/07 03:49:05;;;;;;;2.58;0.40;;;8.30;77.20;;;;;;4834049;29;20603;-77
2021/04/07 03:51:32;;;;;;;1.13;0.22;;;8.30;77.30;;;;;;4847623;29;20510;-76
2021/04/07 03:54:00;;;;;;;0.80;0.30;;;8.30;77.70;;;;;;4850924;29;20042;-76
2021/04/07 03:56:28;;;;;;;1.15;0.43;;;8.40;77.80;;;;;;4846499;29;20512;-76
2021/04/07 03:58:56;;;;;;;2.40;0.35;;;8.40;78.10;;;;;;4838103;29;20543;-77
2021/04/07 04:01:23;;;;;;;1.30;0.30;;;8.20;77.60;;;;;;4839411;29;20041;-76
2021/04/07 04:03:50;;;;;;;1.30;0.30;;;8.20;77.80;;;;;;4833886;29;20073;-76
2021/04/07 04:06:18;;;;;;;2.00;0.30;;;8.30;77.70;;;;;;4853923;29;20057;-77
2021/04/07 04:08:45;;;;;;;1.30;0.25;;;8.20;77.30;;;;;;4832871;29;20116;-76
2021/04/07 04:11:12;;;;;;;0.75;0.28;;;8.10;77.20;;;;;;4848872;29;20042;-77
2021/04/07 04:13:39;;;;;;;1.85;0.30;;;7.90;76.90;;;;;;4829113;29;20464;-77
2021/04/07 04:16:07;;;;;;;2.13;0.30;;;7.90;77.00;;;;;;4846613;29;20066;-77
2021/04/07 04:18:35;;;;;;;0.95;0.17;;;8.00;76.70;;;;;;4848359;29;20602;-77
2021/04/07 04:21:05;;;;;;;1.98;0.20;;;8.10;76.70;;;;;;4834105;29;20057;-77
2021/04/07 04:23:32;;;;;;;0.52;0.20;;;8.00;77.00;;;;;;4846559;29;20049;-77
2021/04/07 04:25:59;;;;;;;0.93;0.20;;;8.00;77.10;;;;;;4818416;29;20318;-77
2021/04/07 04:28:26;;;;;;;1.60;0.32;;;8.10;77.00;;;;;;4832769;29;20057;-77
2021/04/07 04:30:54;;;;;;;1.95;0.30;;;7.90;76.80;;;;;;4833587;29;20058;-76
2021/04/07 04:33:22;;;;;;;1.27;0.40;;;8.00;76.80;;;;;;4848457;29;20045;-76
2021/04/07 04:35:49;;;;;;;2.08;0.28;;;8.00;76.70;;;;;;4849070;29;20060;-76
2021/04/07 04:38:19;;;;;;;1.05;0.47;;;7.90;76.70;;;;;;4834350;29;20044;-76
2021/04/07 04:40:46;;;;;;;1.10;0.30;;;8.10;76.60;;;;;;4848283;29;20578;-75
2021/04/07 04:43:13;;;;;;;1.90;0.47;;;8.20;76.80;;;;;;4846553;29;20073;-75
2021/04/07 04:45:41;;;;;;;2.20;0.50;;;8.30;77.10;;;;;;4851803;29;20045;-75
2021/04/07 04:48:08;;;;;;;1.30;0.43;;;8.30;77.40;;;;;;4815282;29;20469;-76
2021/04/07 04:50:37;;;;;;;2.58;0.40;;;8.30;77.60;;;;;;4848332;29;20579;-76
2021/04/07 04:53:04;;;;;;;1.80;0.30;;;8.20;77.50;;;;;;4833559;29;20049;-75
2021/04/07 04:55:31;;;;;;;1.73;0.57;;;8.20;77.60;;;;;;4848501;29;20037;-76
2021/04/07 04:57:58;;;;;;;2.08;0.40;;;8.20;77.90;;;;;;4833897;29;20041;-76
2021/04/07 05:00:26;;;;;;;2.10;0.43;;;8.20;78.00;;;;;;4830404;29;20072;-76
2021/04/07 05:02:53;;;;;;;5.18;0.50;;;8.10;78.00;;;;;;4831177;29;20041;-76
2021/04/07 05:05:21;;;;;;;2.72;0.57;;;8.10;78.20;;;;;;4832859;29;20041;-76
2021/04/07 05:07:49;;;;;;;2.03;0.70;;;8.10;78.20;;;;;;4848158;29;20056;-76
2021/04/07 05:10:16;;;;;;;1.90;0.47;;;8.10;78.60;;;;;;4848462;29;20052;-76
2021/04/07 05:12:43;;;;;;;2.63;0.60;;;8.10;78.90;;;;;;4849390;29;20048;-76
2021/04/07 05:15:12;;;;;;;2.58;0.50;;;8.10;79.30;;;;;;4832269;29;20050;-78
2021/04/07 05:17:39;;;;;;;2.25;0.70;;;7.90;79.40;;;;;;4836920;29;20492;-76
2021/04/07 05:20:08;;;;;;;1.55;0.80;;;8.00;79.80;;;;;;4848209;29;20056;-76
2021/04/07 05:22:35;;;;;;;1.10;0.50;;;8.00;79.80;;;;;;4850381;29;20064;-76
2021/04/07 05:25:05;;;;;;;4.90;0.90;;;8.10;79.90;;;;;;4834735;29;20053;-76
2021/04/07 05:27:32;;;;;;;3.22;0.70;;;8.20;79.80;;;;;;4851734;29;20133;-76
2021/04/07 05:29:59;;;;;;;3.25;0.80;;;8.20;79.70;;;;;;4833864;29;20825;-77
2021/04/07 05:32:28;;;;;;;3.78;0.63;;;8.20;79.90;;;;;;4850316;29;20052;-76
2021/04/07 05:34:55;;;;;;;3.25;1.27;;;8.20;79.90;;;;;;4830172;29;20539;-76
2021/04/07 05:37:23;;;;;;;2.95;0.90;;;8.20;80.00;;;;;;4835799;29;20518;-76
2021/04/07 05:39:50;;;;;;;2.45;0.75;;;8.20;79.70;;;;;;4852077;29;20042;-76
2021/04/07 05:42:19;;;;;;;2.25;0.65;;;8.20;80.30;;;;;;4835435;29;20556;-77
2021/04/07 05:44:46;;;;;;;1.92;1.17;;;8.30;81.10;;;;;;4833538;29;20582;-76
2021/04/07 05:47:13;;;;;;;1.45;0.98;;;8.10;81.70;;;;;;4851154;29;20152;-77
2021/04/07 05:49:41;;;;;;;1.20;0.50;;;7.90;82.00;;;;;;4847542;29;20041;-76
2021/04/07 05:52:08;;;;;;;2.35;0.80;;;7.90;81.80;;;;;;4853528;29;20042;-76
2021/04/07 05:54:35;;;;;;;4.57;0.80;;;8.20;81.80;;;;;;4846324;29;20041;-76
2021/04/07 05:57:03;;;;;;;2.50;0.90;;;8.30;81.50;;;;;;4848981;29;20042;-76
2021/04/07 05:59:32;;;;;;;3.72;0.98;;;8.30;81.20;;;;;;4844586;29;20056;-76
2021/04/07 06:01:59;;;;;;;6.63;1.20;;;8.40;80.80;;;;;;4832322;29;20472;-76
2021/04/07 06:04:26;;;;;;;1.60;0.70;;;8.40;80.40;;;;;;4848063;29;20102;-76
2021/04/07 06:06:53;;;;;;;2.25;0.63;;;8.50;80.30;;;;;;4852486;29;20957;-76
2021/04/07 06:09:20;;;;;;;2.80;0.75;;;8.50;78.80;;;;;;4832322;29;20428;-76
2021/04/07 06:11:48;;;;;;;2.55;0.82;;;8.50;78.30;;;;;;4830938;29;20037;-76
2021/04/07 06:14:17;;;;;;;2.38;0.85;;;8.50;77.80;;;;;;4847962;29;20498;-75
2021/04/07 06:16:45;;;;;;;1.90;0.80;;;8.70;77.50;;;;;;4852437;29;20133;-77
2021/04/07 06:19:14;;;;;;;2.58;0.70;;;8.70;77.40;;;;;;4830679;29;20054;-76
2021/04/07 06:21:41;;;;;;;1.40;0.60;;;8.70;76.90;;;;;;4841807;29;20568;-76
2021/04/07 06:24:09;;;;;;;1.42;0.60;;;8.70;76.80;;;;;;4848356;29;20053;-76
2021/04/07 06:26:38;;;;;;;2.65;0.50;;;8.70;76.90;;;;;;4831709;29;20061;-76
2021/04/07 06:29:05;;;;;;;1.98;0.57;;;8.80;77.00;;;;;;4850658;29;20046;-76
2021/04/07 06:31:32;;;;;;;0.73;0.32;;;8.70;76.90;;;;;;4840210;29;20037;-75
2021/04/07 06:34:00;;;;;;;3.92;0.60;;;8.70;77.20;;;;;;4837685;29;20118;-75
2021/04/07 06:36:28;;;;;;;2.45;0.40;;;8.80;77.10;;;;;;4836527;29;20676;-75
2021/04/07 06:38:55;;;;;;;1.48;0.40;;;8.80;77.40;;;;;;4833106;29;20045;-74
2021/04/07 06:41:23;;;;;;;2.20;0.40;;;8.90;77.60;;;;;;4840270;29;20062;-75
2021/04/07 06:43:52;;;;;;;1.52;0.50;;;8.90;78.00;;;;;;4836599;29;20144;-76
2021/04/07 06:46:20;;;;;;;3.35;0.50;;;8.90;77.70;;;;;;4837413;29;20041;-76
2021/04/07 06:48:48;;;;;;;2.42;0.47;;;9.00;77.90;;;;;;4818927;29;20500;-76
2021/04/07 06:51:20;;;;;;;2.65;0.47;;;9.00;77.80;;;;;;4838763;29;20073;-76
2021/04/07 06:53:50;;;;;;;2.10;0.43;;;9.10;77.30;;;;;;4836265;29;20936;-76
2021/04/07 06:56:18;;;;;;;0.88;0.30;;;9.10;77.30;;;;;;4852051;29;20423;-76
2021/04/07 06:58:46;;;;;;;2.67;0.40;;;9.20;77.00;;;;;;4852012;29;20090;-73
2021/04/07 07:01:13;;;;;;;0.98;0.35;;;9.20;76.50;;;;;;4822653;29;22110;-73
2021/04/07 07:03:41;;;;;;;3.90;0.65;;;9.20;77.10;;;;;;4841983;29;20106;-73
2021/04/07 07:06:09;;;;;;;3.22;0.40;;;9.30;76.60;;;;;;4851908;29;20053;-73
2021/04/07 07:08:42;;;;;;;1.77;0.40;;;9.30;76.70;;;;;;4852200;29;20108;-73
2021/04/07 07:11:11;;;;;;;1.33;0.30;;;9.40;77.30;;;;;;4836694;29;20034;-73
2021/04/07 07:13:39;;;;;;;1.88;0.35;;;9.50;77.30;;;;;;4849866;29;20045;-73
2021/04/07 07:16:08;;;;;;;1.48;0.75;;;9.60;76.80;;;;;;4856292;29;20034;-73
2021/04/07 07:18:35;;;;;;;3.58;0.50;;;9.70;77.00;;;;;;4848432;29;20069;-75
2021/04/07 07:21:14;;;;;;;1.67;0.38;;;9.80;76.80;;;;;;4844847;29;20478;-74
2021/04/07 07:23:47;;;;;;;1.75;0.30;;;9.80;76.30;;;;;;4848504;29;20050;-74
2021/04/07 07:26:16;;;;;;;0.82;0.38;;;9.70;76.30;;;;;;4832093;29;20584;-74
2021/04/07 07:28:48;;;;;;;3.30;0.30;;;9.80;76.40;;;;;;4834341;29;20158;-74
2021/04/07 07:31:20;;;;;;;1.50;0.43;;;9.80;76.50;;;;;;4849350;29;20065;-75
2021/04/07 07:33:48;;;;;;;2.00;0.30;;;9.80;76.90;;;;;;4842244;29;20041;-75
2021/04/07 07:36:16;;;;;;;2.80;0.68;;;9.90;77.00;;;;;;4834445;29;20044;-74
2021/04/07 07:38:51;;;;;;;2.40;0.60;;;9.90;76.10;;;;;;4844473;29;20809;-76
2021/04/07 07:41:20;;;;;;;2.55;0.65;;;9.90;76.20;;;;;;4850105;29;20055;-76
2021/04/07 07:43:48;;;;;;;2.10;0.60;;;10.00;76.00;;;;;;4837798;29;20058;-74
2021/04/07 07:46:19;;;;;;;2.42;0.60;;;10.10;76.30;;;;;;4849772;29;20068;-74
2021/04/07 07:48:47;;;;;;;2.65;1.00;;;10.30;76.80;;;;;;4849914;29;20040;-75
2021/04/07 07:51:16;;;;;;;3.45;0.70;;;10.30;76.20;;;;;;4835973;29;20547;-74
2021/04/07 07:53:45;;;;;;;2.13;0.60;;;10.40;75.80;;;;;;4853737;29;20041;-74
2021/04/07 07:56:15;;;;;;;2.25;0.68;;;10.60;75.60;;;;;;4853982;29;20061;-73
2021/04/07 07:58:44;;;;;;;1.25;0.50;;;10.60;75.30;;;;;;4835690;29;20393;-74
2021/04/07 08:01:14;;;;;;;1.80;0.45;;;10.70;75.60;;;;;;4832258;29;20053;-74
2021/04/07 08:03:43;;;;;;;2.22;0.60;;;10.60;75.40;;;;;;4829081;29;20069;-72
2021/04/07 08:06:10;;;;;;;3.60;0.65;;;10.60;75.10;;;;;;4835850;29;20101;-72
2021/04/07 08:08:47;;;;;;;;;;;10.60;75.70;;;;;;4848597;29;20132;-73
2021/04/07 08:11:15;;;;;;;0.90;0.43;;;10.60;75.30;;;;;;4851573;29;19934;-73
2021/04/07 08:13:46;;;;;;;2.30;0.60;;;10.60;75.70;;;;;;4852117;29;20128;-73
2021/04/07 08:16:16;;;;;;;2.25;0.80;;;10.60;75.60;;;;;;4851387;29;20062;-73
2021/04/07 08:18:45;;;;;;;2.42;1.13;;;10.60;75.00;;;;;;4834837;29;20411;-73
2021/04/07 08:21:15;;;;;;;2.63;0.88;;;10.50;75.70;;;;;;4834163;29;20109;-73
2021/04/07 08:23:43;;;;;;;5.05;0.80;;;10.60;75.80;;;;;;4834475;29;20109;-73
2021/04/07 08:26:14;;;;;;;3.63;0.98;;;10.70;75.70;;;;;;4847677;29;20053;-73
2021/04/07 08:28:43;;;;;;;1.40;0.73;;;10.60;74.50;;;;;;4832506;29;20128;-73
2021/04/07 08:31:13;;;;;;;1.98;0.50;;;10.80;75.30;;;;;;4830542;29;20053;-74
2021/04/07 08:33:45;;;;;;;2.92;0.93;;;10.90;75.80;;;;;;4846663;29;20045;-72
2021/04/07 08:36:15;;;;;;;2.95;0.70;;;11.00;76.40;;;;;;4837488;29;20062;-73
2021/04/07 08:38:43;;;;;;;1.27;0.45;;;11.10;74.90;;;;;;4846619;29;20045;-77
2021/04/07 08:41:23;;;;;;;2.50;0.65;;;11.10;74.70;;;;;;4848800;29;20053;-74
2021/04/07 08:43:53;;;;;;;2.33;0.63;;;11.10;73.70;;;;;;4833739;29;20516;-74
2021/04/07 08:46:28;;;;;;;4.43;0.85;;;11.20;74.00;;;;;;4848732;29;20445;-73
2021/04/07 08:48:56;;;;;;;2.45;0.90;;;11.30;73.70;;;;;;4844196;29;20037;-71
2021/04/07 08:51:32;;;;;;;4.28;0.70;;;11.40;73.30;;;;;;4848164;29;20049;-72
2021/04/07 08:53:59;;;;;;;2.92;0.70;;;11.40;73.10;;;;;;4833930;29;20439;-72
2021/04/07 08:56:28;;;;;;;2.88;0.60;;;11.50;72.60;;;;;;4846704;29;20041;-72
2021/04/07 08:58:58;;;;;;;3.58;0.93;;;11.40;72.60;;;;;;4832112;29;20370;-73
2021/04/07 09:01:33;;;;;;;2.20;0.80;;;11.40;73.20;;;;;;4851754;29;20512;-72
2021/04/07 09:04:07;;;;;;;3.30;0.70;;;11.40;73.30;;;;;;4842966;29;20104;-73
2021/04/07 09:06:35;;;;;;;2.08;0.70;;;11.30;72.80;;;;;;4836891;29;20183;-74
2021/04/07 09:09:05;;;;;;;3.35;0.70;;;11.40;73.70;;;;;;4833453;29;20144;-73
2021/04/07 09:11:35;;;;;;;3.33;0.75;;;11.50;73.20;;;;;;4846759;29;20579;-73
2021/04/07 09:14:04;;;;;;;4.28;0.82;;;11.50;72.80;;;;;;4835802;29;20050;-74
2021/04/07 09:16:38;;;;;;;5.82;0.50;;;11.60;72.40;;;;;;4836388;29;20142;-74
2021/04/07 09:19:14;;;;;;;0.95;0.47;;;11.70;71.80;;;;;;4836157;29;20045;-74
2021/04/07 09:21:55;;;;;;;1.40;0.73;;;11.80;70.20;;;;;;4829138;29;20569;-74
2021/04/07 09:24:27;;;;;;;3.17;0.98;;;11.80;69.80;;;;;;4850437;29;20045;-73
2021/04/07 09:26:57;;;;;;;1.90;0.60;;;11.90;70.00;;;;;;4850859;29;20520;-73
2021/04/07 09:29:25;;;;;;;1.75;0.50;;;11.90;68.90;;;;;;4849224;29;20110;-74
2021/04/07 09:31:54;;;;;;;1.35;0.70;;;12.00;69.00;;;;;;4850526;29;20584;-73
2021/04/07 09:34:24;;;;;;;2.88;0.57;;;12.10;69.20;;;;;;4847731;29;20145;-74
2021/04/07 09:36:54;;;;;;;1.20;0.50;;;12.20;68.10;;;;;;4829471;29;20642;-75
2021/04/07 09:39:23;;;;;;;1.95;0.60;;;12.20;68.50;;;;;;4833761;29;20041;-74
2021/04/07 09:41:52;;;;;;;1.55;0.60;;;12.40;69.20;;;;;;4831241;29;20579;-74
2021/04/07 09:44:19;;;;;;;2.22;0.80;;;12.50;68.80;;;;;;4830574;29;20530;-71
2021/04/07 09:46:53;;;;;;;3.20;0.77;;;12.50;67.80;;;;;;4851833;29;20046;-75
2021/04/07 09:49:23;;;;;;;7.38;2.78;;;12.60;67.80;;;;;;4845394;29;20052;-73
2021/04/07 09:51:51;;;;;;;3.55;1.25;;;12.70;67.20;;;;;;4851299;29;20057;-73
2021/04/07 09:54:21;;;;;;;0.90;0.52;;;12.80;67.20;;;;;;4831816;29;20045;-74
2021/04/07 09:56:52;;;;;;;3.28;0.65;;;12.80;67.60;;;;;;4844506;29;20043;-73
2021/04/07 09:59:29;;;;;;;1.70;0.80;;;12.90;67.90;;;;;;4832891;29;20407;-73
2021/04/07 10:01:58;;;;;;;1.98;0.82;;;13.00;67.30;;;;;;4848212;29;20045;-73
2021/04/07 10:04:26;;;;;;;3.35;0.50;;;13.00;66.40;;;;;;4840201;29;20075;-73
2021/04/07 10:06:54;;;;;;;1.65;0.63;;;13.00;66.50;;;;;;4843196;29;20047;-72
2021/04/07 10:09:28;;;;;;;1.92;0.60;;;13.10;66.80;;;;;;4849295;29;20621;-72
2021/04/07 10:11:56;;;;;;;1.05;0.50;;;13.20;66.50;;;;;;4852146;29;20582;-73
2021/04/07 10:14:24;;;;;;;3.13;0.75;;;13.20;66.80;;;;;;4848251;29;20132;-72
2021/04/07 10:16:51;;;;;;;2.30;0.70;;;13.20;67.00;;;;;;4852442;29;20053;-73
2021/04/07 10:19:28;;;;;;;5.68;1.00;;;13.40;66.90;;;;;;4840037;29;20045;-73
2021/04/07 10:22:02;;;;;;;2.17;0.60;;;13.50;66.70;;;;;;4851664;29;20050;-71
2021/04/07 10:24:30;;;;;;;5.65;0.82;;;13.50;66.10;;;;;;4839410;29;20042;-72
2021/04/07 10:26:57;;;;;;;3.20;0.80;;;13.50;66.30;;;;;;4849474;29;20127;-72
2021/04/07 10:29:28;;;;;;;4.53;0.80;;;13.30;64.90;;;;;;4834550;29;20105;-72
2021/04/07 10:32:00;;;;;;;2.67;0.93;;;13.30;65.00;;;;;;4838286;29;20093;-74
2021/04/07 10:34:30;;;;;;;1.55;0.50;;;13.50;66.50;;;;;;4858213;29;20064;-77
2021/04/07 10:36:58;;;;;;;1.30;0.70;;;13.50;64.90;;;;;;4839374;29;20584;-73
2021/04/07 10:39:35;;;;;;;1.35;0.60;;;13.60;64.60;;;;;;4850572;29;20064;-73
2021/04/07 10:42:03;;;;;;;1.75;0.60;;;13.80;65.50;;;;;;4846029;29;20049;-73
2021/04/07 10:44:32;;;;;;;1.45;0.52;;;13.90;65.20;;;;;;4838178;29;20041;-72
2021/04/07 10:46:59;;;;;;;2.00;0.70;;;13.60;62.70;;;;;;4852657;29;20370;-73
2021/04/07 10:49:28;;;;;;;1.08;0.60;;;13.40;62.00;;;;;;4836919;29;20052;-72
2021/04/07 10:52:00;;;;;;;1.33;0.50;;;13.20;61.70;;;;;;4852031;29;20053;-73
2021/04/07 10:54:28;;;;;;;1.60;0.50;;;13.10;62.10;;;;;;4853300;29;20041;-72
2021/04/07 10:57:00;;;;;;;2.72;0.52;;;13.00;62.00;;;;;;4835283;29;20555;-71
2021/04/07 10:59:28;;;;;;;2.55;0.40;;;13.20;65.30;;;;;;4838702;29;20142;-72
2021/04/07 11:01:56;;;;;;;2.10;0.60;;;13.40;64.40;;;;;;4854393;29;20041;-72
2021/04/07 11:04:25;;;;;;;2.58;0.80;;;13.40;64.70;;;;;;4852302;29;20136;-73
2021/04/07 11:06:58;;;;;;;1.58;0.60;;;13.50;63.80;;;;;;4850189;29;20037;-74
2021/04/07 11:09:28;;;;;;;3.30;0.88;;;13.50;65.60;;;;;;4848552;29;20052;-74
2021/04/07 11:11:59;;;;;;;2.42;0.77;;;13.50;65.20;;;;;;4849941;29;20045;-75
2021/04/07 11:14:26;;;;;;;1.92;0.80;;;13.40;63.80;;;;;;4832460;29;20049;-74
2021/04/07 11:16:58;;;;;;;1.83;0.65;;;13.20;64.60;;;;;;4838149;29;20042;-73
2021/04/07 11:19:33;;;;;;;1.70;0.60;;;13.30;65.60;;;;;;4850939;29;20045;-74
2021/04/07 11:22:02;;;;;;;0.98;0.60;;;13.20;63.80;;;;;;4847451;29;20113;-74
2021/04/07 11:24:29;;;;;;;3.50;0.90;;;13.10;64.60;;;;;;4848195;29;20070;-74
2021/04/07 11:26:57;;;;;;;2.78;0.98;;;13.00;64.10;;;;;;4849928;29;20095;-73
2021/04/07 11:29:25;;;;;;;3.20;0.60;;;12.70;62.90;;;;;;4852950;29;20500;-75
2021/04/07 11:31:54;;;;;;;1.80;0.70;;;12.70;65.30;;;;;;4833698;29;20132;-75
2021/04/07 11:34:57;;;;;;;3.20;0.70;;;12.70;65.10;;;;;;4848529;29;20046;-75
2021/04/07 11:40:38;;;;;;;1.65;0.55;;;12.80;64.10;;;;;;4830313;29;20412;-75
2021/04/07 11:43:25;;;;;;;1.30;0.60;;;12.70;60.00;;;;;;4847102;29;20228;-75
2021/04/07 11:45:52;;;;;;;0.85;0.30;;;12.70;59.50;;;;;;4856050;29;20065;-75
2021/04/07 11:48:39;;;;;;;1.38;0.63;;;12.70;57.90;;;;;;4854748;29;20444;-76
2021/04/07 11:51:08;;;;;;;1.35;0.50;;;13.10;59.60;;;;;;4845071;29;20044;-75
2021/04/07 11:53:37;;;;;;;2.15;0.60;;;13.30;59.70;;;;;;4848862;29;20065;-76
2021/04/07 11:56:06;;;;;;;1.65;0.30;;;13.40;59.00;;;;;;4832661;29;20045;-76
2021/04/07 11:58:33;;;;;;;1.30;0.45;;;13.40;57.30;;;;;;4835287;29;20054;-77
2021/04/07 12:01:01;;;;;;;1.17;0.50;;;13.40;57.90;;;;;;4849676;29;20072;-77
2021/04/07 12:03:29;;;;;;;1.85;0.70;;;13.40;57.00;;;;;;4851177;29;20049;-76
2021/04/07 12:05:56;;;;;;;1.48;0.60;;;13.40;56.90;;;;;;4841608;29;20072;-77
2021/04/07 12:08:25;;;;;;;1.65;0.85;;;13.30;56.80;;;;;;4836768;29;20738;-77
2021/04/07 12:10:57;;;;;;;4.68;0.80;;;13.10;57.10;;;;;;4834125;29;20056;-75
2021/04/07 12:13:24;;;;;;;1.65;0.60;;;12.90;60.10;;;;;;4856492;29;20422;-76
2021/04/07 12:15:52;;;;;;;6.00;2.17;;;12.80;60.40;;;;;;4834800;29;20539;-75
2021/04/07 12:18:20;;;;;;;4.03;2.67;;;12.70;60.20;;;;;;4848811;29;20594;-75
2021/04/07 12:20:48;;;;;;;2.95;0.93;;;12.50;58.40;;;;;;4829680;29;20507;-75
2021/04/07 12:23:16;;;;;;;2.53;0.88;;;12.30;59.10;;;;;;4819072;29;20067;-75
2021/04/07 12:25:43;;;;;;;5.07;1.77;;;12.20;59.10;;;;;;4850372;29;20072;-75
2021/04/07 12:28:12;;;;;;;3.13;1.67;;;12.20;59.50;;;;;;4848625;29;20077;-75
2021/04/07 12:30:49;;;;;;;2.83;0.93;;;12.10;60.10;;;;;;4852942;29;20057;-75
2021/04/07 12:33:18;;;;;;;3.97;1.30;;;12.20;59.40;;;;;;4835024;29;20264;-75
2021/04/07 12:35:47;;;;;;;2.45;0.98;;;12.10;58.00;;;;;;4832591;29;20504;-75
2021/04/07 12:38:14;;;;;;;2.03;0.60;;;12.20;60.00;;;;;;4833094;29;20437;-75
2021/04/07 12:40:45;;;;;;;4.00;2.63;;;12.40;57.80;;;;;;4836090;29;20163;-75
2021/04/07 12:43:15;;;;;;;1.60;1.00;;;12.00;56.80;;;;;;4835135;29;20182;-75
2021/04/07 12:45:43;;;;;;;1.70;0.90;;;12.00;56.30;;;;;;4849848;29;20511;-74
2021/04/07 12:48:11;;;;;;;12.63;6.20;;;12.20;56.20;;;;;;4835887;29;20046;-75
2021/04/07 12:50:39;;;;;;;14.88;6.82;;;12.20;57.00;;;;;;4835152;29;20523;-74
2021/04/07 12:53:07;;;;;;;6.32;3.33;;;12.20;56.40;;;;;;4849485;29;20707;-75
2021/04/07 12:55:35;;;;;;;4.90;2.67;;;12.50;57.80;;;;;;4838005;29;20045;-75
2021/04/07 12:58:04;;;;;;;3.92;1.70;;;12.90;57.20;;;;;;4831619;29;20041;-76
2021/04/07 13:00:32;;;;;;;2.83;1.25;;;13.10;56.80;;;;;;4837740;29;20550;-75
2021/04/07 13:03:00;;;;;;;2.05;0.50;;;13.40;57.30;;;;;;4837435;29;20314;-76
2021/04/07 13:05:27;;;;;;;3.75;1.70;;;13.50;54.80;;;;;;4857281;29;20041;-76